createdAt,value
2019-06-08T00:01:10.466Z,99.90
2019-06-08T00:04:18.612Z,99.90
2019-06-08T00:07:26.353Z,99.90
2019-06-08T00:10:34.005Z,99.90
2019-06-08T00:13:41.915Z,99.90
2019-06-08T00:16:49.531Z,99.90
2019-06-08T00:19:57.018Z,99.90
2019-06-08T00:23:04.759Z,99.90
2019-06-08T00:26:13.892Z,99.90
2019-06-08T00:29:22.409Z,99.90
2019-06-08T00:32:29.968Z,99.90
2019-06-08T00:35:37.418Z,99.90
2019-06-08T00:38:45.119Z,99.90
2019-06-08T00:41:52.724Z,99.90
2019-06-08T00:45:00.322Z,99.90
2019-06-08T00:48:07.719Z,99.90
2019-06-08T00:51:15.204Z,99.90
2019-06-08T00:54:23.507Z,99.90
2019-06-08T00:57:31.008Z,99.90
2019-06-08T01:00:38.917Z,99.90
2019-06-08T01:03:46.378Z,99.90
2019-06-08T01:06:55.070Z,99.90
2019-06-08T01:10:02.673Z,99.90
2019-06-08T01:13:10.311Z,99.90
2019-06-08T01:16:18.793Z,99.90
2019-06-08T01:19:27.436Z,99.90
2019-06-08T01:22:34.946Z,99.90
2019-06-08T01:25:42.766Z,99.90
2019-06-08T01:28:50.174Z,99.90
2019-06-08T01:31:57.740Z,99.90
2019-06-08T01:35:05.851Z,99.90
2019-06-08T01:38:13.396Z,99.90
2019-06-08T01:41:21.346Z,99.90
2019-06-08T01:44:30.090Z,99.90
2019-06-08T01:47:37.780Z,99.90
2019-06-08T01:50:45.708Z,99.90
2019-06-08T01:53:53.182Z,99.90
2019-06-08T01:57:00.850Z,99.90
2019-06-08T02:00:29.332Z,99.90
2019-06-08T02:03:18.163Z,99.90
2019-06-08T02:06:26.249Z,99.90
2019-06-08T02:09:35.696Z,99.90
2019-06-08T02:12:43.316Z,99.90
2019-06-08T02:15:51.180Z,99.90
2019-06-08T02:18:58.709Z,99.90
2019-06-08T02:22:06.383Z,99.90
2019-06-08T02:25:16.547Z,99.90
2019-06-08T02:28:24.020Z,99.90
2019-06-08T02:31:32.772Z,99.90
2019-06-08T02:34:41.073Z,99.90
2019-06-08T02:37:48.699Z,99.90
2019-06-08T02:40:56.350Z,99.90
2019-06-08T02:44:04.075Z,99.90
2019-06-08T02:47:15.455Z,99.90
2019-06-08T02:50:48.005Z,99.90
2019-06-08T02:53:55.633Z,99.90
2019-06-08T02:57:05.289Z,99.90
2019-06-08T03:00:13.414Z,99.90
2019-06-08T03:03:21.033Z,99.90
2019-06-08T03:06:32.273Z,99.90
2019-06-08T03:09:41.220Z,99.90
2019-06-08T03:12:51.603Z,99.90
2019-06-08T03:15:59.302Z,99.90
2019-06-08T03:19:20.639Z,99.90
2019-06-08T03:22:16.075Z,99.90
2019-06-08T03:25:23.585Z,99.90
2019-06-08T03:28:32.504Z,99.90
2019-06-08T03:31:49.686Z,99.90
2019-06-08T03:34:55.694Z,99.90
2019-06-08T03:37:58.525Z,99.90
2019-06-08T03:41:05.995Z,99.90
2019-06-08T03:44:13.458Z,99.90
2019-06-08T03:47:21.003Z,99.90
2019-06-08T03:50:28.488Z,99.90
2019-06-08T03:53:37.733Z,99.90
2019-06-08T03:56:46.172Z,99.90
2019-06-08T03:59:53.785Z,99.90
2019-06-08T04:03:01.477Z,99.90
2019-06-08T04:06:08.943Z,99.90
2019-06-08T04:09:16.399Z,99.90
2019-06-08T04:12:23.788Z,99.90
2019-06-08T04:15:31.449Z,99.90
2019-06-08T04:18:40.286Z,99.90
2019-06-08T04:21:48.038Z,99.90
2019-06-08T04:24:55.520Z,99.90
2019-06-08T04:28:02.919Z,99.90
2019-06-08T04:31:10.389Z,99.90
2019-06-08T04:34:17.839Z,99.90
2019-06-08T04:37:25.313Z,99.90
2019-06-08T04:40:32.772Z,99.90
2019-06-08T04:43:42.780Z,99.90
2019-06-08T04:46:50.846Z,99.90
2019-06-08T04:49:58.363Z,99.90
2019-06-08T04:53:05.835Z,99.90
2019-06-08T04:56:13.297Z,99.90
2019-06-08T04:59:20.813Z,99.90
2019-06-08T05:02:28.333Z,99.90
2019-06-08T05:05:35.819Z,99.90
2019-06-08T05:08:43.251Z,99.90
2019-06-08T05:11:50.659Z,99.90
2019-06-08T05:14:58.121Z,99.90
2019-06-08T05:18:05.795Z,99.90
2019-06-08T05:21:13.223Z,99.90
2019-06-08T05:24:21.331Z,99.90
2019-06-08T05:27:28.803Z,99.90
2019-06-08T05:30:36.302Z,99.90
2019-06-08T05:33:43.771Z,99.90
2019-06-08T05:36:51.254Z,99.90
2019-06-08T05:39:58.712Z,99.90
2019-06-08T05:43:06.280Z,99.90
2019-06-08T05:46:13.757Z,99.90
2019-06-08T05:49:21.334Z,99.90
2019-06-08T05:52:28.825Z,99.90
2019-06-08T05:55:36.247Z,99.90
2019-06-08T05:58:43.940Z,99.90
2019-06-08T06:01:51.569Z,99.90
2019-06-08T06:04:59.101Z,99.90
2019-06-08T06:08:17.963Z,99.90
2019-06-08T06:11:15.791Z,99.90
2019-06-08T06:14:24.522Z,99.90
2019-06-08T06:17:31.982Z,99.90
2019-06-08T06:20:41.008Z,99.90
2019-06-08T06:23:49.308Z,99.90
2019-06-08T06:26:57.147Z,99.80
2019-06-08T06:30:04.900Z,98.80
2019-06-08T06:33:12.337Z,98.70
2019-06-08T06:36:21.031Z,97.00
2019-06-08T06:39:28.540Z,94.80
2019-06-08T06:42:36.103Z,93.00
2019-06-08T06:45:43.981Z,92.50
2019-06-08T06:48:52.509Z,91.00
2019-06-08T06:52:00.324Z,91.60
2019-06-08T06:55:08.917Z,91.10
2019-06-08T06:58:16.413Z,90.60
2019-06-08T07:01:24.174Z,90.90
2019-06-08T07:04:31.760Z,91.00
2019-06-08T07:07:39.296Z,89.80
2019-06-08T07:10:49.382Z,88.60
2019-06-08T07:13:57.057Z,87.50
2019-06-08T07:17:04.602Z,81.60
2019-06-08T07:20:12.281Z,80.00
2019-06-08T07:23:19.946Z,78.00
2019-06-08T07:26:27.514Z,77.90
2019-06-08T07:29:35.108Z,78.70
2019-06-08T07:32:42.702Z,78.60
2019-06-08T07:35:51.567Z,84.50
2019-06-08T07:38:59.649Z,87.00
2019-06-08T07:42:07.290Z,87.20
2019-06-08T07:45:14.936Z,88.10
2019-06-08T07:48:24.128Z,88.30
2019-06-08T07:51:31.833Z,86.10
2019-06-08T07:54:39.290Z,85.00
2019-06-08T07:57:48.501Z,86.00
2019-06-08T08:01:03.653Z,79.60
2019-06-08T08:04:04.896Z,84.40
2019-06-08T08:07:12.562Z,87.50
2019-06-08T08:10:20.145Z,91.10
2019-06-08T08:13:27.611Z,93.00
2019-06-08T08:16:35.088Z,94.70
2019-06-08T08:19:42.646Z,97.50
2019-06-08T08:22:54.402Z,97.10
2019-06-08T08:26:01.751Z,97.60
2019-06-08T08:29:08.566Z,96.10
2019-06-08T08:32:18.606Z,96.70
2019-06-08T08:35:25.217Z,97.90
2019-06-08T08:38:32.637Z,98.00
2019-06-08T08:41:40.083Z,96.00
2019-06-08T08:44:48.633Z,93.80
2019-06-08T08:48:14.432Z,93.70
2019-06-08T08:51:08.605Z,94.30
2019-06-08T08:54:18.138Z,92.00
2019-06-08T08:57:25.710Z,87.60
2019-06-08T09:00:33.379Z,87.60
2019-06-08T09:03:40.893Z,88.50
2019-06-08T09:06:48.434Z,87.40
2019-06-08T09:09:59.422Z,86.90
2019-06-08T09:13:05.166Z,88.40
2019-06-08T09:16:12.623Z,88.10
2019-06-08T09:19:21.043Z,81.50
2019-06-08T09:22:31.150Z,79.00
2019-06-08T09:25:40.393Z,77.20
2019-06-08T09:28:46.789Z,78.20
2019-06-08T09:31:54.287Z,75.70
2019-06-08T09:35:04.652Z,76.00
2019-06-08T09:38:11.099Z,79.70
2019-06-08T09:41:18.798Z,80.20
2019-06-08T09:44:28.112Z,82.40
2019-06-08T09:47:37.948Z,86.30
2019-06-08T09:50:44.471Z,88.20
2019-06-08T09:53:54.248Z,91.10
2019-06-08T09:57:03.962Z,93.60
2019-06-08T10:00:18.008Z,94.60
2019-06-08T10:03:20.835Z,93.10
2019-06-08T10:06:28.457Z,93.80
2019-06-08T10:09:37.989Z,99.00
2019-06-08T10:12:44.921Z,99.90
2019-06-08T10:15:52.387Z,99.90
2019-06-08T10:19:03.578Z,99.90
2019-06-08T10:22:09.029Z,99.90
2019-06-08T10:25:16.697Z,99.90
2019-06-08T10:28:24.162Z,99.90
2019-06-08T10:31:38.890Z,99.90
2019-06-08T10:34:40.855Z,99.90
2019-06-08T10:37:51.210Z,99.90
2019-06-08T10:41:10.411Z,99.90
2019-06-08T10:44:14.431Z,99.90
2019-06-08T10:47:22.141Z,99.90
2019-06-08T10:50:29.686Z,99.90
2019-06-08T10:53:46.399Z,99.90
2019-06-08T10:56:48.421Z,99.90
2019-06-08T10:59:57.573Z,99.50
2019-06-08T11:03:06.697Z,99.40
2019-06-08T11:06:13.731Z,99.90
2019-06-08T11:09:21.554Z,99.90
2019-06-08T11:12:29.219Z,99.90
2019-06-08T11:15:37.823Z,99.90
2019-06-08T11:18:45.623Z,99.70
2019-06-08T11:21:53.071Z,99.90
2019-06-08T11:25:01.965Z,99.80
2019-06-08T11:28:14.905Z,98.90
2019-06-08T11:31:19.828Z,98.30
2019-06-08T11:34:28.809Z,98.40
2019-06-08T11:37:38.763Z,98.30
2019-06-08T11:40:47.819Z,98.80
2019-06-08T11:43:59.554Z,99.80
2019-06-08T11:47:04.651Z,99.90
2019-06-08T11:50:13.476Z,98.20
2019-06-08T11:53:21.055Z,99.30
2019-06-08T11:56:29.117Z,99.30
2019-06-08T11:59:37.491Z,99.90
2019-06-08T12:02:45.157Z,99.90
2019-06-08T12:05:52.667Z,99.70
2019-06-08T12:09:00.305Z,99.80
2019-06-08T12:12:17.153Z,99.80
2019-06-08T12:15:21.201Z,99.90
2019-06-08T12:18:28.708Z,99.90
2019-06-08T12:21:36.246Z,99.90
2019-06-08T12:24:43.698Z,99.90
2019-06-08T12:27:52.776Z,99.90
2019-06-08T12:31:01.149Z,99.90
2019-06-08T12:34:09.237Z,99.90
2019-06-08T12:37:21.790Z,99.90
2019-06-08T12:40:28.097Z,99.90
2019-06-08T12:43:34.936Z,99.90
2019-06-08T12:46:42.476Z,99.90
2019-06-08T12:49:49.924Z,99.90
2019-06-08T12:52:58.393Z,99.90
2019-06-08T12:56:05.992Z,99.90
2019-06-08T12:59:17.017Z,99.90
2019-06-08T13:02:24.252Z,99.90
2019-06-08T13:05:33.029Z,99.90
2019-06-08T13:08:40.488Z,99.90
2019-06-08T13:11:50.516Z,99.90
2019-06-08T13:14:58.176Z,99.90
2019-06-08T13:18:05.859Z,99.90
2019-06-08T13:21:25.411Z,99.90
2019-06-08T13:24:22.583Z,99.90
2019-06-08T13:27:30.122Z,99.90
2019-06-08T13:30:38.984Z,99.90
2019-06-08T13:33:48.571Z,99.90
2019-06-08T13:36:55.805Z,99.90
2019-06-08T13:40:03.360Z,99.90
2019-06-08T13:43:11.227Z,99.90
2019-06-08T13:46:20.763Z,99.90
2019-06-08T13:49:30.825Z,99.90
2019-06-08T13:52:38.290Z,99.90
2019-06-08T13:55:53.201Z,99.90
2019-06-08T13:58:54.995Z,99.90
2019-06-08T14:02:02.821Z,99.90
2019-06-08T14:05:10.529Z,99.90
2019-06-08T14:08:20.690Z,99.90
2019-06-08T14:11:28.072Z,99.90
2019-06-08T14:14:39.680Z,99.90
2019-06-08T14:17:47.383Z,99.90
2019-06-08T14:20:54.778Z,99.90
2019-06-08T14:24:03.619Z,99.90
2019-06-08T14:27:11.050Z,99.90
2019-06-08T14:30:20.794Z,99.90
2019-06-08T14:33:33.054Z,99.90
2019-06-08T14:36:40.580Z,99.90
2019-06-08T14:39:45.911Z,99.90
2019-06-08T14:42:53.382Z,99.90
2019-06-08T14:46:00.839Z,99.90
2019-06-08T14:49:09.884Z,99.90
2019-06-08T14:52:19.343Z,99.90
2019-06-08T14:55:31.646Z,99.90
2019-06-08T14:58:35.584Z,99.90
2019-06-08T15:01:43.045Z,99.90
2019-06-08T15:04:50.615Z,99.90
2019-06-08T15:08:00.744Z,99.90
2019-06-08T15:11:08.119Z,99.90
2019-06-08T15:14:15.838Z,99.90
2019-06-08T15:17:23.768Z,99.90
2019-06-08T15:20:31.329Z,99.90
2019-06-08T15:23:38.762Z,99.90
2019-06-08T15:26:48.666Z,99.90
2019-06-08T15:29:55.823Z,99.90
2019-06-08T15:33:03.214Z,99.90
2019-06-08T15:36:10.650Z,99.90
2019-06-08T15:39:18.170Z,99.90
2019-06-08T15:42:28.690Z,99.90
2019-06-08T15:45:34.871Z,99.90
2019-06-08T15:48:42.293Z,99.90
2019-06-08T15:51:49.697Z,99.90
2019-06-08T15:54:59.017Z,99.90
2019-06-08T15:58:08.705Z,99.90
2019-06-08T16:01:15.488Z,99.90
2019-06-08T16:04:23.422Z,99.90
2019-06-08T16:07:32.754Z,99.90
2019-06-08T16:10:40.993Z,99.90
2019-06-08T16:13:48.440Z,99.90
2019-06-08T16:16:56.079Z,99.90
2019-06-08T16:20:03.515Z,99.90
2019-06-08T16:23:11.107Z,99.90
2019-06-08T16:26:19.002Z,99.90
2019-06-08T16:29:26.909Z,99.90
2019-06-08T16:32:35.395Z,99.90
2019-06-08T16:35:42.981Z,99.90
2019-06-08T16:38:52.834Z,99.90
2019-06-08T16:41:59.869Z,99.90
2019-06-08T16:45:07.861Z,99.90
2019-06-08T16:48:15.314Z,99.90
2019-06-08T16:51:22.974Z,99.90
2019-06-08T16:54:30.647Z,99.90
2019-06-08T16:57:40.784Z,99.90
2019-06-08T17:00:47.431Z,99.90
2019-06-08T17:03:54.973Z,99.90
2019-06-08T17:07:03.277Z,99.90
2019-06-08T17:10:10.937Z,99.90
2019-06-08T17:13:18.381Z,99.90
2019-06-08T17:16:26.011Z,99.90
2019-06-08T17:19:34.097Z,99.90
2019-06-08T17:22:41.708Z,99.90
2019-06-08T17:25:49.161Z,99.90
2019-06-08T17:28:56.645Z,99.90
2019-06-08T17:32:04.113Z,99.90
2019-06-08T17:35:12.241Z,99.90
2019-06-08T17:38:19.815Z,99.90
2019-06-08T17:41:27.393Z,99.90
2019-06-08T17:44:36.389Z,99.90
2019-06-08T17:47:44.364Z,99.90
2019-06-08T17:50:51.918Z,99.90
2019-06-08T17:53:59.440Z,99.90
2019-06-08T17:57:06.889Z,99.90
2019-06-08T18:00:14.906Z,99.90
2019-06-08T18:03:22.449Z,99.90
2019-06-08T18:06:29.903Z,99.90
2019-06-08T18:09:39.258Z,99.90
2019-06-08T18:12:49.032Z,99.90
2019-06-08T18:15:57.586Z,99.90
2019-06-08T18:19:04.985Z,99.90
2019-06-08T18:22:15.316Z,99.90
2019-06-08T18:25:21.527Z,99.90
2019-06-08T18:28:28.973Z,99.90
2019-06-08T18:31:39.654Z,99.90
2019-06-08T18:34:47.926Z,99.90
2019-06-08T18:37:54.715Z,99.90
2019-06-08T18:41:02.160Z,99.90
2019-06-08T18:44:09.610Z,99.90
2019-06-08T18:47:20.089Z,99.90
2019-06-08T18:50:28.469Z,99.90
2019-06-08T18:53:54.366Z,99.90
2019-06-08T18:56:48.416Z,99.90
2019-06-08T18:59:54.398Z,99.90
2019-06-08T19:03:01.899Z,99.90
2019-06-08T19:06:10.429Z,99.90
2019-06-08T19:09:18.220Z,99.90
2019-06-08T19:12:27.665Z,99.90
2019-06-08T19:15:40.685Z,99.90
2019-06-08T19:18:48.944Z,99.90
2019-06-08T19:21:54.501Z,99.90
2019-06-08T19:25:02.055Z,99.90
2019-06-08T19:28:09.739Z,99.90
2019-06-08T19:31:17.646Z,99.90
2019-06-08T19:34:27.926Z,99.90
2019-06-08T19:37:34.323Z,99.90
2019-06-08T19:40:42.664Z,99.90
2019-06-08T19:43:54.551Z,99.90
2019-06-08T19:46:59.612Z,99.90
2019-06-08T19:50:07.958Z,99.90
2019-06-08T19:53:18.376Z,99.90
2019-06-08T19:56:27.972Z,99.90
2019-06-08T19:59:35.334Z,99.90
2019-06-08T20:02:44.638Z,99.90
2019-06-08T20:05:53.608Z,99.90
2019-06-08T20:09:01.853Z,99.90
2019-06-08T20:12:10.945Z,99.90
2019-06-08T20:15:18.533Z,99.90
2019-06-08T20:18:27.981Z,99.90
2019-06-08T20:21:35.493Z,99.90
2019-06-08T20:24:44.057Z,99.90
2019-06-08T20:27:51.755Z,99.90
2019-06-08T20:30:59.939Z,99.90
2019-06-08T20:34:07.390Z,99.90
2019-06-08T20:37:14.835Z,99.90
2019-06-08T20:40:22.346Z,99.90
2019-06-08T20:43:29.852Z,99.90
2019-06-08T20:46:37.754Z,99.90
2019-06-08T20:49:48.630Z,99.90
2019-06-08T20:52:54.566Z,99.90
2019-06-08T20:56:02.047Z,99.90
2019-06-08T20:59:09.534Z,99.90
2019-06-08T21:02:17.841Z,99.90
2019-06-08T21:05:27.603Z,99.90
2019-06-08T21:08:34.377Z,99.90
2019-06-08T21:11:41.925Z,99.90
2019-06-08T21:14:52.284Z,99.90
2019-06-08T21:17:59.995Z,99.90
2019-06-08T21:21:08.119Z,99.90
2019-06-08T21:24:17.317Z,99.90
2019-06-08T21:27:24.928Z,99.90
2019-06-08T21:30:32.456Z,99.90
2019-06-08T21:33:39.915Z,99.90
2019-06-08T21:36:49.811Z,99.90
2019-06-08T21:40:03.171Z,99.90
2019-06-08T21:43:07.926Z,99.90
2019-06-08T21:46:14.636Z,99.90
2019-06-08T21:49:22.159Z,99.90
2019-06-08T21:52:29.589Z,99.90
2019-06-08T21:55:38.290Z,99.90
2019-06-08T21:58:47.283Z,99.90
2019-06-08T22:01:59.005Z,99.90
2019-06-08T22:05:04.872Z,99.90
2019-06-08T22:08:12.618Z,99.90
2019-06-08T22:11:20.135Z,99.90
2019-06-08T22:14:27.575Z,99.90
2019-06-08T22:17:38.087Z,99.90
2019-06-08T22:20:47.645Z,99.90
2019-06-08T22:23:55.858Z,99.90
2019-06-08T22:27:03.672Z,99.90
2019-06-08T22:30:22.920Z,99.90
2019-06-08T22:33:22.260Z,99.90
2019-06-08T22:36:29.949Z,99.90
2019-06-08T22:39:38.057Z,99.90
2019-06-08T22:42:48.104Z,99.90
2019-06-08T22:45:57.561Z,99.90
2019-06-08T22:49:04.621Z,99.90
2019-06-08T22:52:12.307Z,99.90
2019-06-08T22:55:19.853Z,99.90
2019-06-08T22:58:27.688Z,99.90
2019-06-08T23:01:35.197Z,99.90
2019-06-08T23:04:42.763Z,99.90
2019-06-08T23:07:52.358Z,99.90
2019-06-08T23:11:02.005Z,99.90
2019-06-08T23:14:12.883Z,99.90
2019-06-08T23:17:18.187Z,99.90
2019-06-08T23:20:27.578Z,99.90
2019-06-08T23:23:34.769Z,99.90
2019-06-08T23:26:42.233Z,99.90
2019-06-08T23:29:49.829Z,99.90
2019-06-08T23:33:01.459Z,99.90
2019-06-08T23:39:22.249Z,99.90
2019-06-08T23:42:29.682Z,99.90
2019-06-08T23:45:38.009Z,99.90
2019-06-08T23:48:48.152Z,99.90
2019-06-08T23:51:54.853Z,99.90
2019-06-08T23:55:04.263Z,99.90
2019-06-08T23:58:13.525Z,99.90
